Time;durP1;ratioP1;P1;durP2;ratioP2;P2;SDS_P1;SDS_P2;PMS_P1;PMS_P2;Temp;Humidity;BMP_temperature;BMP_pressure;BME280_temperature;BME280_humidity;BME280_pressure;Samples;Min_cycle;Max_cycle;Signal;HPM_P1;HPM_P2
2023/03/13 00:04:29;;;;;;;26.23;3.60;;;8.70;99.90;;;;;;15421749;23;20099;-36
2023/03/13 00:10:37;;;;;;;30.42;4.82;;;8.60;99.90;;;;;;15424052;23;20028;-37
2023/03/13 00:16:38;;;;;;;16.77;3.15;;;8.60;99.90;;;;;;15422912;23;20035;-37
2023/03/13 00:22:40;;;;;;;21.75;4.57;;;8.70;99.90;;;;;;15421080;23;20017;-38
2023/03/13 00:28:42;;;;;;;25.05;4.25;;;8.70;99.90;;;;;;15421378;23;20023;-39
2023/03/13 00:34:46;;;;;;;22.42;3.70;;;8.80;99.90;;;;;;15393325;23;20029;-37
2023/03/13 00:40:48;;;;;;;21.63;3.25;;;8.80;99.90;;;;;;15419004;23;20095;-38
2023/03/13 00:46:51;;;;;;;23.27;4.22;;;8.70;99.90;;;;;;15421729;23;20071;-38
2023/03/13 00:52:53;;;;;;;21.23;3.95;;;8.60;99.90;;;;;;15417692;23;20051;-38
2023/03/13 00:58:55;;;;;;;23.35;3.05;;;8.60;99.90;;;;;;15419129;23;20067;-37
2023/03/13 01:04:57;;;;;;;14.65;2.70;;;8.60;99.90;;;;;;15418615;23;20021;-37
2023/03/13 01:11:06;;;;;;;19.10;3.03;;;8.60;99.90;;;;;;15420602;23;20464;-38
2023/03/13 01:17:08;;;;;;;23.40;3.47;;;8.50;99.90;;;;;;15418134;23;20103;-38
2023/03/13 01:23:09;;;;;;;20.88;3.78;;;8.60;99.90;;;;;;15393646;23;20027;-38
2023/03/13 01:29:12;;;;;;;23.23;3.55;;;8.60;99.90;;;;;;15418036;23;20088;-37
2023/03/13 01:35:14;;;;;;;17.40;3.45;;;8.60;99.90;;;;;;15417569;23;20248;-37
2023/03/13 01:41:17;;;;;;;22.75;3.58;;;8.50;99.90;;;;;;15391265;23;20028;-38
2023/03/13 01:47:19;;;;;;;19.42;3.20;;;8.50;99.90;;;;;;15418340;23;20017;-37
2023/03/13 01:53:22;;;;;;;21.52;2.90;;;8.40;99.90;;;;;;15421211;23;20028;-37
2023/03/13 01:59:31;;;;;;;22.65;3.33;;;8.40;99.90;;;;;;15420230;23;20094;-38
2023/03/13 02:05:33;;;;;;;17.88;3.83;;;8.40;99.90;;;;;;15420399;23;20159;-38
2023/03/13 02:11:56;;;;;;;24.42;3.22;;;8.20;99.90;;;;;;15420998;23;20032;-38
2023/03/13 02:17:59;;;;;;;19.70;2.75;;;8.10;99.90;;;;;;15421325;23;20020;-36
2023/03/13 02:24:18;;;;;;;21.88;3.45;;;8.10;99.90;;;;;;15416327;23;20028;-37
2023/03/13 02:30:21;;;;;;;22.67;2.90;;;8.00;99.90;;;;;;15416165;23;20029;-38
2023/03/13 02:36:23;;;;;;;22.10;3.30;;;8.00;99.90;;;;;;15420258;23;20355;-37
2023/03/13 02:42:25;;;;;;;19.00;3.55;;;8.00;99.90;;;;;;15421506;23;20039;-37
2023/03/13 02:48:39;;;;;;;20.35;3.10;;;8.00;99.90;;;;;;15421436;23;20497;-38
2023/03/13 02:54:42;;;;;;;23.47;3.70;;;8.00;99.90;;;;;;15417145;23;20115;-38
2023/03/13 03:00:44;;;;;;;21.17;3.20;;;8.00;99.90;;;;;;15422738;23;20052;-37
2023/03/13 03:06:46;;;;;;;20.48;3.30;;;8.00;99.90;;;;;;15420516;23;20031;-37
2023/03/13 03:12:48;;;;;;;18.63;3.10;;;8.00;99.90;;;;;;15417461;23;20387;-37
2023/03/13 03:18:50;;;;;;;17.35;2.78;;;8.00;99.90;;;;;;15420290;23;20671;-37
2023/03/13 03:24:52;;;;;;;19.75;2.90;;;8.00;99.90;;;;;;15422292;23;20020;-38
2023/03/13 03:30:56;;;;;;;19.08;3.67;;;8.00;99.90;;;;;;15421111;23;20099;-38
2023/03/13 03:36:58;;;;;;;23.95;3.42;;;8.10;99.90;;;;;;15418985;23;20025;-38
2023/03/13 03:42:59;;;;;;;19.08;3.08;;;8.10;99.90;;;;;;15419267;23;20016;-38
2023/03/13 03:49:01;;;;;;;16.50;2.78;;;8.10;99.90;;;;;;15419625;23;20105;-37
2023/03/13 03:55:04;;;;;;;19.08;3.38;;;8.20;99.90;;;;;;15417172;23;20038;-37
2023/03/13 04:01:07;;;;;;;17.05;3.22;;;8.20;99.90;;;;;;15392922;23;20107;-37
2023/03/13 04:07:08;;;;;;;17.77;3.10;;;8.20;99.90;;;;;;15416805;23;20118;-38
2023/03/13 04:13:10;;;;;;;19.85;2.83;;;8.30;99.90;;;;;;15419525;23;20020;-38
2023/03/13 04:19:12;;;;;;;14.02;2.90;;;8.40;99.90;;;;;;15415601;23;20107;-38
2023/03/13 04:25:14;;;;;;;15.95;2.88;;;8.40;99.90;;;;;;15413382;23;20028;-37
2023/03/13 04:31:16;;;;;;;20.77;3.05;;;8.40;99.90;;;;;;15383355;23;20095;-38
2023/03/13 04:37:18;;;;;;;14.75;2.80;;;8.40;99.90;;;;;;15422788;23;20092;-37
2023/03/13 04:43:20;;;;;;;13.80;2.72;;;8.50;99.90;;;;;;15418070;23;20031;-38
2023/03/13 04:49:22;;;;;;;16.48;2.55;;;8.50;99.90;;;;;;15421721;23;20023;-38
2023/03/13 04:55:23;;;;;;;14.02;2.58;;;8.60;99.90;;;;;;15422853;23;20103;-38
2023/03/13 05:01:25;;;;;;;14.43;2.78;;;8.60;99.90;;;;;;15421578;23;20107;-38
2023/03/13 05:07:27;;;;;;;14.27;2.42;;;8.70;99.90;;;;;;15420501;23;20029;-37
2023/03/13 05:13:29;;;;;;;16.13;2.60;;;8.70;99.90;;;;;;15395809;23;20035;-38
2023/03/13 05:19:31;;;;;;;13.27;2.58;;;8.70;99.90;;;;;;15418902;23;20362;-38
2023/03/13 05:25:33;;;;;;;9.98;2.58;;;8.80;99.90;;;;;;15408057;23;20035;-38
2023/03/13 05:31:35;;;;;;;8.77;2.35;;;8.90;99.90;;;;;;15423179;23;20016;-38
2023/03/13 05:37:36;;;;;;;9.27;2.40;;;9.00;99.90;;;;;;15423064;23;20024;-38
2023/03/13 05:43:41;;;;;;;5.50;2.40;;;9.10;99.90;;;;;;15419203;23;20108;-38
2023/03/13 05:49:43;;;;;;;12.23;3.25;;;9.20;99.90;;;;;;15414593;23;20021;-38
2023/03/13 05:55:46;;;;;;;9.18;2.83;;;9.30;99.90;;;;;;15409927;23;20039;-39
2023/03/13 06:01:47;;;;;;;6.35;2.70;;;9.30;99.90;;;;;;15423726;23;20115;-38
2023/03/13 06:07:50;;;;;;;5.45;2.63;;;9.40;99.90;;;;;;15420150;23;20017;-38
2023/03/13 06:13:52;;;;;;;8.02;2.67;;;9.50;99.90;;;;;;15420347;23;20074;-38
2023/03/13 06:19:53;;;;;;;8.45;2.97;;;9.60;99.90;;;;;;15417503;23;20021;-39
2023/03/13 06:25:55;;;;;;;7.88;3.38;;;9.70;99.90;;;;;;15423754;23;20032;-39
2023/03/13 06:31:57;;;;;;;5.20;2.95;;;9.90;99.90;;;;;;15417577;23;20050;-38
2023/03/13 06:37:59;;;;;;;6.47;3.60;;;10.00;99.90;;;;;;15421070;23;20027;-38
2023/03/13 06:44:03;;;;;;;7.43;4.10;;;10.20;99.90;;;;;;15419599;23;20415;-38
2023/03/13 06:50:05;;;;;;;5.72;4.07;;;10.30;99.90;;;;;;15415799;23;20027;-38
2023/03/13 06:56:08;;;;;;;6.60;4.40;;;10.30;99.90;;;;;;15356657;23;20024;-38
2023/03/13 07:02:11;;;;;;;7.82;4.82;;;10.40;99.90;;;;;;15421135;23;20103;-39
2023/03/13 07:08:13;;;;;;;9.82;5.75;;;10.40;99.90;;;;;;15417602;23;20458;-38
2023/03/13 07:14:14;;;;;;;8.27;6.40;;;10.40;99.90;;;;;;15416985;23;20025;-38
2023/03/13 07:20:18;;;;;;;9.43;6.07;;;10.40;99.90;;;;;;15419985;23;20032;-39
2023/03/13 07:26:20;;;;;;;10.38;6.70;;;10.50;99.90;;;;;;15420870;23;20050;-39
2023/03/13 07:32:22;;;;;;;7.72;6.40;;;10.50;99.90;;;;;;15383051;23;20807;-39
2023/03/13 07:38:24;;;;;;;8.52;6.45;;;10.60;99.90;;;;;;15416023;23;20024;-39
2023/03/13 07:44:26;;;;;;;11.00;6.35;;;10.60;99.90;;;;;;15418138;23;20059;-39
2023/03/13 07:50:28;;;;;;;9.38;6.07;;;10.70;99.90;;;;;;15418669;23;20139;-39
2023/03/13 07:56:30;;;;;;;7.43;5.38;;;10.80;99.90;;;;;;15417945;23;20052;-39
2023/03/13 08:02:32;;;;;;;5.72;4.57;;;10.90;99.90;;;;;;15419428;23;20024;-40
2023/03/13 08:08:35;;;;;;;7.53;5.13;;;11.00;99.90;;;;;;15421069;23;20020;-38
2023/03/13 08:14:37;;;;;;;8.10;4.40;;;11.10;99.90;;;;;;15421564;23;20099;-38
2023/03/13 08:20:39;;;;;;;5.15;3.63;;;11.20;99.90;;;;;;15421436;23;20118;-39
2023/03/13 08:26:41;;;;;;;5.47;3.58;;;11.20;99.90;;;;;;15421912;23;20099;-39
2023/03/13 08:32:43;;;;;;;6.43;3.25;;;11.20;99.90;;;;;;15419517;23;20056;-39
2023/03/13 08:38:46;;;;;;;6.15;2.65;;;11.30;99.90;;;;;;15422992;23;20126;-39
2023/03/13 08:44:48;;;;;;;8.85;2.42;;;11.40;99.90;;;;;;15396907;23;20117;-39
2023/03/13 08:51:06;;;;;;;5.60;2.40;;;11.60;99.90;;;;;;15397206;23;20027;-39
2023/03/13 08:57:08;;;;;;;5.97;2.72;;;11.60;99.90;;;;;;15421904;23;20024;-39
2023/03/13 09:03:09;;;;;;;4.93;2.30;;;11.50;99.90;;;;;;15396561;23;20095;-39
2023/03/13 09:09:13;;;;;;;4.72;2.35;;;11.70;99.90;;;;;;15421454;23;20480;-39
2023/03/13 09:15:15;;;;;;;5.57;2.22;;;11.80;99.90;;;;;;15419359;23;20025;-39
2023/03/13 09:21:19;;;;;;;6.72;2.70;;;11.80;99.90;;;;;;15419882;23;20039;-40
2023/03/13 09:27:21;;;;;;;4.70;2.05;;;11.90;99.90;;;;;;15424459;23;20375;-39
2023/03/13 09:33:23;;;;;;;5.97;1.95;;;12.00;99.90;;;;;;15419724;23;20506;-39
2023/03/13 09:39:25;;;;;;;5.55;2.42;;;12.10;99.90;;;;;;15420786;23;20025;-39
2023/03/13 09:45:41;;;;;;;6.53;1.70;;;12.20;99.90;;;;;;15422226;23;20025;-39
2023/03/13 09:51:46;;;;;;;7.68;2.17;;;12.20;99.90;;;;;;15419477;23;20028;-38
2023/03/13 09:58:01;;;;;;;5.65;2.17;;;12.00;99.90;;;;;;15420512;23;20024;-40
2023/03/13 10:04:18;;;;;;;;;;;12.10;99.90;;;;;;15421462;23;20025;-39
2023/03/13 10:10:46;;;;;;;7.28;2.60;;;12.10;99.90;;;;;;15419292;23;20245;-39
2023/03/13 10:17:17;;;;;;;6.57;2.42;;;12.50;99.90;;;;;;15413920;23;20028;-40
2023/03/13 10:23:28;;;;;;;8.20;2.30;;;12.90;99.90;;;;;;15417737;23;20031;-39
2023/03/13 10:29:30;;;;;;;6.13;2.20;;;13.30;99.90;;;;;;15421259;23;20017;-39
2023/03/13 10:35:38;;;;;;;7.13;2.40;;;13.60;99.90;;;;;;15419093;23;20025;-39
2023/03/13 10:41:40;;;;;;;6.70;2.20;;;13.60;99.90;;;;;;15418850;23;20024;-39
2023/03/13 10:47:42;;;;;;;7.50;2.03;;;13.80;99.90;;;;;;15418641;23;20096;-39
2023/03/13 10:53:43;;;;;;;5.30;2.13;;;13.90;99.90;;;;;;15392677;23;20427;-39
2023/03/13 10:59:50;;;;;;;5.93;1.80;;;13.80;99.90;;;;;;15418992;23;20307;-39
2023/03/13 11:06:00;;;;;;;3.90;1.67;;;13.80;99.90;;;;;;15415579;23;20024;-40
2023/03/13 11:12:17;;;;;;;8.48;1.77;;;13.90;99.90;;;;;;15419537;23;20020;-39
2023/03/13 11:18:49;;;;;;;7.30;1.73;;;14.00;99.90;;;;;;15417448;23;20103;-39
2023/03/13 11:25:15;;;;;;;4.03;1.80;;;14.20;99.90;;;;;;15415890;23;20020;-38
2023/03/13 11:31:24;;;;;;;2.85;1.40;;;14.00;99.90;;;;;;15417158;23;20017;-40
2023/03/13 11:37:30;;;;;;;4.85;1.70;;;14.60;99.90;;;;;;15418422;23;20030;-39
2023/03/13 11:43:44;;;;;;;5.10;1.30;;;15.10;99.90;;;;;;15415812;23;20158;-40
2023/03/13 11:49:49;;;;;;;4.53;1.48;;;15.00;99.90;;;;;;15393458;23;20094;-40
2023/03/13 11:56:14;;;;;;;2.08;1.10;;;14.70;99.90;;;;;;15416320;23;20023;-39
2023/03/13 12:02:26;;;;;;;7.47;1.45;;;15.20;99.90;;;;;;15418578;23;20020;-40
2023/03/13 12:08:43;;;;;;;4.53;1.10;;;14.80;99.90;;;;;;15416470;23;20021;-39
2023/03/13 12:14:59;;;;;;;3.83;1.17;;;15.40;99.90;;;;;;15417806;23;20024;-39
2023/03/13 12:21:12;;;;;;;4.32;1.25;;;15.20;99.90;;;;;;15414343;23;20358;-38
2023/03/13 12:27:25;;;;;;;7.35;1.63;;;15.10;99.90;;;;;;15422734;23;20546;-39
2023/03/13 12:33:36;;;;;;;6.15;1.40;;;15.20;99.90;;;;;;15416835;23;20111;-40
2023/03/13 12:39:37;;;;;;;3.55;1.23;;;15.50;99.90;;;;;;15417609;23;20031;-39
2023/03/13 12:46:05;;;;;;;2.10;1.10;;;15.60;99.90;;;;;;15417292;23;20025;-39
2023/03/13 12:52:36;;;;;;;4.15;1.10;;;15.50;99.90;;;;;;15415235;23;20131;-38
2023/03/13 12:58:50;;;;;;;1.70;0.85;;;15.80;99.90;;;;;;15421446;23;20028;-39
2023/03/13 13:04:53;;;;;;;;;;;15.80;99.90;;;;;;15420577;23;20025;-39
2023/03/13 13:11:39;;;;;;;2.67;0.80;;;15.90;99.90;;;;;;15418064;23;20010;-39
2023/03/13 13:18:11;;;;;;;2.03;0.70;;;16.10;99.90;;;;;;15424798;23;20148;-39
2023/03/13 13:24:39;;;;;;;1.92;0.70;;;16.30;99.90;;;;;;15421681;23;20366;-38
2023/03/13 13:30:41;;;;;;;2.75;0.80;;;16.60;99.90;;;;;;15403789;23;20028;-39
2023/03/13 13:36:43;;;;;;;3.13;0.70;;;16.30;99.90;;;;;;15421156;23;20024;-38
2023/03/13 13:42:55;;;;;;;3.55;0.90;;;16.50;99.90;;;;;;15420243;23;20024;-39
2023/03/13 13:49:06;;;;;;;1.38;0.50;;;16.40;99.90;;;;;;15421738;23;20029;-38
2023/03/13 13:55:29;;;;;;;3.05;0.60;;;16.60;99.90;;;;;;15419873;23;20075;-39
2023/03/13 14:01:33;;;;;;;1.07;0.60;;;16.40;99.90;;;;;;15391836;23;20095;-39
2023/03/13 14:07:52;;;;;;;3.00;0.50;;;16.20;99.90;;;;;;15417343;23;20100;-39
2023/03/13 14:14:14;;;;;;;4.22;0.60;;;16.00;99.90;;;;;;15421102;23;20668;-38
2023/03/13 14:20:35;;;;;;;3.47;0.60;;;15.90;99.90;;;;;;15414735;23;20032;-38
2023/03/13 14:26:42;;;;;;;3.65;0.60;;;16.00;99.90;;;;;;15408835;23;20099;-39
2023/03/13 14:32:45;;;;;;;1.85;0.57;;;16.20;99.90;;;;;;15421240;23;20446;-38
2023/03/13 14:38:53;;;;;;;2.63;0.60;;;16.00;99.90;;;;;;15420166;23;20028;-39
2023/03/13 14:44:56;;;;;;;1.40;0.60;;;15.80;99.90;;;;;;15393950;23;20058;-38
2023/03/13 14:51:24;;;;;;;4.10;0.60;;;15.80;99.90;;;;;;15413051;23;20021;-39
2023/03/13 14:57:27;;;;;;;1.77;0.63;;;15.80;99.90;;;;;;15421647;23;20131;-39
2023/03/13 15:03:31;;;;;;;1.63;0.50;;;15.60;99.90;;;;;;15416896;23;20020;-39
2023/03/13 15:09:41;;;;;;;4.47;0.60;;;15.70;99.90;;;;;;15419652;23;20145;-38
2023/03/13 15:15:45;;;;;;;2.60;0.60;;;15.70;99.90;;;;;;15418658;23;20029;-38
2023/03/13 15:21:51;;;;;;;;;;;15.70;99.90;;;;;;15420006;23;20041;-38
2023/03/13 15:27:53;;;;;;;3.70;0.80;;;15.80;99.90;;;;;;15416749;23;19930;-38
2023/03/13 15:33:59;;;;;;;4.53;0.52;;;15.60;99.90;;;;;;15416142;23;20115;-38
2023/03/13 15:40:06;;;;;;;2.33;0.70;;;15.50;99.90;;;;;;15415931;23;20035;-39
2023/03/13 15:46:14;;;;;;;3.63;0.65;;;15.30;99.90;;;;;;15418723;23;20430;-39
2023/03/13 15:52:21;;;;;;;3.97;0.90;;;15.20;99.90;;;;;;15417676;23;20020;-39
2023/03/13 15:58:24;;;;;;;3.45;0.68;;;15.20;99.90;;;;;;15419001;23;20062;-39
2023/03/13 16:04:26;;;;;;;1.93;0.90;;;15.10;99.90;;;;;;15418976;23;20436;-39
2023/03/13 16:10:30;;;;;;;2.63;0.70;;;15.00;99.90;;;;;;15417066;23;20056;-38
2023/03/13 16:16:34;;;;;;;1.77;0.55;;;15.00;99.90;;;;;;15416426;23;20071;-39
2023/03/13 16:22:38;;;;;;;1.85;0.60;;;15.00;99.90;;;;;;15418174;23;20110;-39
2023/03/13 16:28:40;;;;;;;1.65;0.82;;;15.00;99.90;;;;;;15418824;23;20167;-39
2023/03/13 16:34:42;;;;;;;2.25;0.75;;;15.00;99.90;;;;;;15418837;23;20076;-39
2023/03/13 16:40:44;;;;;;;1.48;0.60;;;15.10;99.90;;;;;;15421472;23;20159;-38
2023/03/13 16:46:46;;;;;;;7.07;0.95;;;15.10;99.90;;;;;;15423520;23;20024;-39
2023/03/13 16:53:05;;;;;;;4.63;0.80;;;15.10;99.90;;;;;;15424369;23;20088;-39
2023/03/13 16:59:15;;;;;;;5.28;0.80;;;15.00;99.90;;;;;;15423149;23;20111;-39
2023/03/13 17:05:17;;;;;;;3.03;0.82;;;14.80;99.90;;;;;;15419623;23;20076;-38
2023/03/13 17:11:20;;;;;;;2.78;1.00;;;14.60;99.90;;;;;;15422731;23;20079;-38
2023/03/13 17:17:22;;;;;;;2.00;0.80;;;14.40;99.90;;;;;;15416731;23;20028;-38
2023/03/13 17:23:24;;;;;;;2.35;1.10;;;14.40;99.90;;;;;;15423281;23;20036;-38
2023/03/13 17:29:26;;;;;;;2.28;0.90;;;14.10;99.90;;;;;;15393698;23;20023;-38
2023/03/13 17:35:28;;;;;;;4.03;1.35;;;13.90;99.90;;;;;;15419777;23;20036;-38
2023/03/13 17:41:32;;;;;;;4.43;0.88;;;13.80;99.90;;;;;;15421870;23;20032;-38
2023/03/13 17:47:33;;;;;;;2.50;0.90;;;13.80;99.90;;;;;;15422037;23;20031;-40
2023/03/13 17:53:35;;;;;;;3.80;0.98;;;13.70;99.90;;;;;;15420882;23;20031;-39
2023/03/13 17:59:37;;;;;;;2.08;0.82;;;13.60;99.90;;;;;;15391592;23;20513;-39
2023/03/13 18:05:39;;;;;;;4.50;1.00;;;13.60;99.90;;;;;;15421829;23;20047;-39
2023/03/13 18:11:43;;;;;;;1.87;0.97;;;13.50;99.90;;;;;;15419012;23;20021;-39
2023/03/13 18:17:46;;;;;;;3.28;1.02;;;13.40;99.90;;;;;;15417851;23;20335;-38
2023/03/13 18:23:47;;;;;;;2.15;1.10;;;13.50;99.90;;;;;;15401693;23;20061;-38
2023/03/13 18:29:49;;;;;;;2.67;1.10;;;13.30;99.90;;;;;;15420886;23;20091;-38
2023/03/13 18:35:51;;;;;;;4.85;0.98;;;13.30;99.90;;;;;;15418589;23;20051;-39
2023/03/13 18:41:53;;;;;;;3.67;0.88;;;13.30;99.90;;;;;;15420166;23;20808;-38
2023/03/13 18:47:55;;;;;;;2.95;1.08;;;13.40;99.90;;;;;;15421098;23;20063;-39
2023/03/13 18:53:57;;;;;;;3.88;1.08;;;13.20;99.90;;;;;;15417523;23;20665;-39
2023/03/13 18:59:59;;;;;;;3.13;1.13;;;13.10;99.90;;;;;;15417805;23;20058;-39
2023/03/13 19:06:00;;;;;;;5.28;1.10;;;13.00;99.90;;;;;;15420036;23;20019;-38
2023/03/13 19:12:02;;;;;;;2.78;1.00;;;13.00;99.90;;;;;;15419850;23;20099;-39
2023/03/13 19:18:05;;;;;;;5.55;1.00;;;12.90;99.90;;;;;;15417326;23;20099;-39
2023/03/13 19:24:07;;;;;;;3.65;1.08;;;12.80;99.90;;;;;;15416536;23;20025;-38
2023/03/13 19:30:21;;;;;;;3.88;1.20;;;12.70;99.90;;;;;;15408521;23;20031;-38
2023/03/13 19:36:28;;;;;;;5.75;1.23;;;12.70;99.90;;;;;;15417186;23;20062;-39
2023/03/13 19:42:33;;;;;;;2.67;1.10;;;12.60;99.90;;;;;;15418293;23;20031;-38
2023/03/13 19:48:34;;;;;;;5.07;1.30;;;12.50;99.90;;;;;;15419535;23;20027;-39
2023/03/13 19:54:36;;;;;;;5.70;1.00;;;12.50;99.90;;;;;;15415476;23;20466;-38
2023/03/13 20:00:39;;;;;;;3.47;1.38;;;12.60;99.90;;;;;;15419966;23;20220;-39
2023/03/13 20:06:42;;;;;;;5.38;1.30;;;12.40;99.90;;;;;;15424323;23;20027;-39
2023/03/13 20:12:43;;;;;;;5.68;2.05;;;12.30;99.90;;;;;;15426142;23;20025;-38
2023/03/13 20:18:48;;;;;;;2.45;1.10;;;12.10;99.90;;;;;;15426214;23;20025;-39
2023/03/13 20:24:52;;;;;;;4.40;1.33;;;12.10;99.90;;;;;;15422238;23;20358;-39
2023/03/13 20:30:54;;;;;;;2.30;1.10;;;12.20;99.90;;;;;;15425588;23;20118;-38
2023/03/13 20:36:57;;;;;;;4.03;1.40;;;12.10;99.90;;;;;;15423293;23;20605;-40
2023/03/13 20:43:00;;;;;;;2.07;1.10;;;12.00;99.90;;;;;;15421847;23;20202;-38
2023/03/13 20:49:02;;;;;;;3.17;1.15;;;11.90;99.90;;;;;;15424091;23;20096;-38
2023/03/13 20:55:04;;;;;;;3.30;1.20;;;11.90;99.90;;;;;;15421946;23;20128;-38
2023/03/13 21:01:07;;;;;;;6.53;1.85;;;11.80;99.90;;;;;;15424187;23;20496;-39
2023/03/13 21:07:09;;;;;;;4.78;1.50;;;11.80;99.90;;;;;;15423397;23;20099;-39
2023/03/13 21:13:11;;;;;;;4.47;1.40;;;11.80;99.90;;;;;;15423837;23;20027;-39
2023/03/13 21:19:13;;;;;;;3.63;1.10;;;11.80;99.90;;;;;;15421390;23;20592;-38
2023/03/13 21:25:15;;;;;;;4.82;1.30;;;11.70;99.90;;;;;;15411154;23;20031;-39
2023/03/13 21:31:18;;;;;;;5.22;1.52;;;11.60;99.90;;;;;;15419009;23;20099;-38
2023/03/13 21:37:20;;;;;;;3.83;1.15;;;11.50;99.90;;;;;;15419599;23;20028;-39
2023/03/13 21:43:22;;;;;;;5.10;1.77;;;11.50;99.90;;;;;;15421730;23;20025;-39
2023/03/13 21:49:24;;;;;;;4.43;1.25;;;11.50;99.90;;;;;;15419631;23;20100;-39
2023/03/13 21:55:26;;;;;;;4.93;1.58;;;11.40;99.90;;;;;;15418798;23;20028;-38
2023/03/13 22:01:28;;;;;;;7.80;1.88;;;11.30;99.90;;;;;;15420652;23;20066;-38
2023/03/13 22:07:29;;;;;;;3.80;1.30;;;11.20;99.90;;;;;;15422411;23;20020;-38
2023/03/13 22:13:31;;;;;;;8.38;1.52;;;11.10;99.90;;;;;;15419927;23;20047;-39
2023/03/13 22:19:33;;;;;;;6.20;1.65;;;11.10;99.90;;;;;;15420105;23;20029;-38
2023/03/13 22:25:39;;;;;;;6.55;1.60;;;11.10;99.90;;;;;;15417715;23;20112;-38
2023/03/13 22:31:47;;;;;;;3.92;1.23;;;11.00;99.90;;;;;;15421344;23;20091;-38
2023/03/13 22:37:49;;;;;;;3.90;1.58;;;10.90;99.90;;;;;;15420273;23;20133;-39
2023/03/13 22:43:50;;;;;;;8.57;1.67;;;11.00;99.90;;;;;;15416609;23;20021;-38
2023/03/13 22:49:52;;;;;;;3.75;1.45;;;11.10;99.90;;;;;;15422094;23;20017;-38
2023/03/13 22:55:54;;;;;;;6.53;1.30;;;11.10;99.90;;;;;;15417219;23;20488;-38
2023/03/13 23:01:56;;;;;;;4.47;1.70;;;11.10;99.90;;;;;;15421861;23;20106;-38
2023/03/13 23:07:58;;;;;;;9.13;1.67;;;11.10;99.90;;;;;;15417741;23;20028;-38
2023/03/13 23:13:59;;;;;;;7.50;1.25;;;11.20;99.90;;;;;;15420680;23;20028;-38
2023/03/13 23:20:11;;;;;;;5.43;1.38;;;11.20;99.90;;;;;;15417737;23;20025;-38
2023/03/13 23:26:15;;;;;;;4.05;1.30;;;11.20;99.90;;;;;;15420470;23;20020;-38
2023/03/13 23:32:16;;;;;;;3.08;0.90;;;11.30;99.90;;;;;;15419195;23;20147;-38
2023/03/13 23:38:22;;;;;;;4.38;1.20;;;11.20;99.90;;;;;;15424697;23;20113;-38
2023/03/13 23:44:24;;;;;;;4.15;1.10;;;11.30;99.90;;;;;;15417711;23;20028;-38
2023/03/13 23:50:26;;;;;;;6.45;1.20;;;11.20;99.90;;;;;;15415150;23;20024;-38
2023/03/13 23:56:29;;;;;;;5.90;1.30;;;11.10;99.90;;;;;;15418550;23;20127;-38
